createdAt,value
2023-01-17T00:00:00.453Z,955.003
2023-01-17T00:01:00.603Z,955.0312
2023-01-17T00:02:00.751Z,955.003
2023-01-17T00:03:00.975Z,954.9182
2023-01-17T00:04:01.141Z,954.8082
2023-01-17T00:05:01.198Z,954.9952
2023-01-17T00:06:00.342Z,955.1365
2023-01-17T00:07:00.488Z,954.9894
2023-01-17T00:08:00.668Z,955.0878
2023-01-17T00:09:00.802Z,955.1365
2023-01-17T00:10:00.937Z,954.9104
2023-01-17T00:11:01.101Z,954.9932
2023-01-17T00:12:01.244Z,954.9932
2023-01-17T00:13:00.388Z,954.9445
2023-01-17T00:14:00.556Z,954.893
2023-01-17T00:15:00.768Z,955.1024
2023-01-17T00:16:00.861Z,955.1814
2023-01-17T00:17:01.010Z,954.97
2023-01-17T00:18:01.148Z,954.97
2023-01-17T00:19:00.295Z,954.8345
2023-01-17T00:20:00.449Z,955.122
2023-01-17T00:21:00.593Z,955.122
2023-01-17T00:22:00.739Z,955.054
2023-01-17T00:23:00.892Z,955.2242
2023-01-17T00:24:01.043Z,954.9894
2023-01-17T00:25:01.214Z,954.9785
2023-01-17T00:26:00.329Z,954.9015
2023-01-17T00:27:00.483Z,954.9747
2023-01-17T00:28:00.627Z,954.9465
2023-01-17T00:29:00.774Z,955.0429
2023-01-17T00:30:00.923Z,955.1443
2023-01-17T00:31:01.156Z,955.0878
2023-01-17T00:32:01.202Z,955.003
2023-01-17T00:33:00.357Z,955.0292
2023-01-17T00:34:00.516Z,954.9611
2023-01-17T00:35:00.648Z,954.9669
2023-01-17T00:36:00.835Z,955.0878
2023-01-17T00:37:00.944Z,954.9747
2023-01-17T00:38:16.686Z,955.0312
2023-01-17T00:39:01.238Z,955.0878
2023-01-17T00:40:00.381Z,955.0915
2023-01-17T00:41:00.535Z,955.2008
2023-01-17T00:42:00.667Z,955.2008
2023-01-17T00:43:00.817Z,955.3139
2023-01-17T00:44:00.998Z,955.2291
2023-01-17T00:45:01.114Z,955.4834
2023-01-17T00:46:00.294Z,955.2008
2023-01-17T00:47:00.430Z,955.4834
2023-01-17T00:48:00.569Z,955.3986
2023-01-17T00:49:00.732Z,955.4552
2023-01-17T00:50:00.839Z,955.227
2023-01-17T00:51:00.999Z,955.5038
2023-01-17T00:52:01.133Z,955.6812
2023-01-17T00:53:00.315Z,955.5379
2023-01-17T00:54:00.449Z,955.4697
2023-01-17T00:55:00.684Z,955.5379
2023-01-17T00:56:00.731Z,955.5038
2023-01-17T00:57:00.902Z,955.5038
2023-01-17T00:58:01.041Z,955.3118
2023-01-17T00:59:01.179Z,955.4697
2023-01-17T01:00:00.335Z,955.5038
2023-01-17T01:01:00.616Z,955.306
2023-01-17T01:02:00.860Z,955.2894
2023-01-17T01:03:00.787Z,955.6812
2023-01-17T01:04:00.921Z,955.5379
2023-01-17T01:05:01.062Z,955.4697
2023-01-17T01:06:01.211Z,955.4922
2023-01-17T01:07:00.399Z,955.4016
2023-01-17T01:08:00.497Z,955.5379
2023-01-17T01:09:00.655Z,955.498
2023-01-17T01:10:00.794Z,955.4639
2023-01-17T01:11:00.948Z,955.5038
2023-01-17T01:12:01.120Z,955.6812
2023-01-17T01:13:01.232Z,955.5379
2023-01-17T01:14:00.389Z,955.4963
2023-01-17T01:15:00.562Z,955.4834
2023-01-17T01:16:00.812Z,955.7095
2023-01-17T01:17:00.867Z,955.5117
2023-01-17T01:18:00.981Z,955.6883
2023-01-17T01:19:01.134Z,955.7494
2023-01-17T01:20:00.265Z,955.6812
2023-01-17T01:21:00.419Z,955.6509
2023-01-17T01:22:00.578Z,955.6002
2023-01-17T01:23:00.712Z,955.5719
2023-01-17T01:24:00.863Z,955.5719
2023-01-17T01:25:01.013Z,955.6567
2023-01-17T01:26:01.158Z,955.5944
2023-01-17T01:27:00.321Z,955.6168
2023-01-17T01:28:00.474Z,955.5038
2023-01-17T01:29:00.633Z,955.7298
2023-01-17T01:30:00.762Z,955.6812
2023-01-17T01:31:00.903Z,955.7378
2023-01-17T01:32:01.043Z,955.7095
2023-01-17T01:33:01.198Z,955.7494
2023-01-17T01:34:00.375Z,955.7506
2023-01-17T01:35:00.501Z,955.6812
2023-01-17T01:36:00.644Z,955.8225
2023-01-17T01:37:00.804Z,955.7224
2023-01-17T01:38:00.952Z,955.7494
2023-01-17T01:39:01.121Z,955.6812
2023-01-17T01:40:01.247Z,955.6812
2023-01-17T01:41:00.395Z,955.7943
2023-01-17T01:42:00.539Z,955.6812
2023-01-17T01:43:00.731Z,955.6451
2023-01-17T01:44:00.850Z,955.5262
2023-01-17T01:45:01.005Z,955.6791
2023-01-17T01:46:01.229Z,955.766
2023-01-17T01:47:00.293Z,955.6812
2023-01-17T01:48:00.439Z,955.766
2023-01-17T01:49:00.591Z,955.6883
2023-01-17T01:50:00.767Z,955.7731
2023-01-17T01:51:00.890Z,955.7378
2023-01-17T01:52:01.048Z,955.9144
2023-01-17T01:53:01.210Z,955.7095
2023-01-17T01:54:00.336Z,955.766
2023-01-17T01:55:00.532Z,955.6812
2023-01-17T01:56:00.641Z,955.9356
2023-01-17T01:57:00.788Z,955.8508
2023-01-17T01:58:00.952Z,955.7494
2023-01-17T01:59:01.089Z,955.813
2023-01-17T02:00:01.269Z,956.0437
2023-01-17T02:01:00.432Z,955.9755
2023-01-17T02:02:00.523Z,956.1234
2023-01-17T02:03:00.679Z,955.9638
2023-01-17T02:04:00.878Z,956.1234
2023-01-17T02:05:03.678Z,956.005
2023-01-17T02:06:01.124Z,956.1234
2023-01-17T02:07:00.280Z,956.1234
2023-01-17T02:08:00.412Z,955.9073
2023-01-17T02:09:00.564Z,956.032
2023-01-17T02:10:00.722Z,956.0786
2023-01-17T02:11:00.883Z,956.032
2023-01-17T02:12:01.025Z,956.1587
2023-01-17T02:13:01.166Z,956.1234
2023-01-17T02:14:00.319Z,956.0486
2023-01-17T02:15:00.457Z,956.1234
2023-01-17T02:16:00.730Z,956.1799
2023-01-17T02:17:00.737Z,956.1234
2023-01-17T02:18:00.885Z,956.1234
2023-01-17T02:19:01.061Z,956.1234
2023-01-17T02:20:01.198Z,956.1517
2023-01-17T02:21:00.362Z,956.0589
2023-01-17T02:22:00.486Z,956.1517
2023-01-17T02:23:00.625Z,956.2082
2023-01-17T02:24:00.782Z,956.2082
2023-01-17T02:25:00.941Z,956.0407
2023-01-17T02:26:01.109Z,956.0589
2023-01-17T02:27:01.233Z,955.9949
2023-01-17T02:28:00.364Z,956.0697
2023-01-17T02:29:00.512Z,956.0456
2023-01-17T02:30:00.662Z,956.171
2023-01-17T02:31:00.819Z,956.0115
2023-01-17T02:32:00.961Z,955.9587
2023-01-17T02:33:01.103Z,955.9305
2023-01-17T02:34:01.256Z,956.0398
2023-01-17T02:35:00.409Z,956.085
2023-01-17T02:36:00.577Z,956.0447
2023-01-17T02:37:00.710Z,956.0734
2023-01-17T02:38:00.864Z,956.0675
2023-01-17T02:39:00.997Z,956.0094
2023-01-17T02:40:01.150Z,956.0841
2023-01-17T02:41:00.314Z,956.1299
2023-01-17T02:42:00.443Z,955.9977
2023-01-17T02:43:00.609Z,956.0783
2023-01-17T02:44:00.740Z,956.124
2023-01-17T02:45:00.888Z,956.2711
2023-01-17T02:46:01.099Z,956.2312
2023-01-17T02:47:01.177Z,956.2877
2023-01-17T02:48:00.332Z,956.3501
2023-01-17T02:49:00.482Z,956.2254
2023-01-17T02:50:00.628Z,956.3608
2023-01-17T02:51:03.427Z,956.2478
2023-01-17T02:52:00.931Z,956.2195
2023-01-17T02:53:01.082Z,956.1738
2023-01-17T02:54:01.232Z,956.3998
2023-01-17T02:55:00.375Z,956.2739
2023-01-17T02:56:00.539Z,956.4339
2023-01-17T02:57:00.706Z,956.5079
2023-01-17T02:58:00.841Z,956.2819
2023-01-17T02:59:00.992Z,956.4514
2023-01-17T03:00:01.182Z,956.4679
2023-01-17T03:01:00.364Z,956.2585
2023-01-17T03:02:00.698Z,956.4056
2023-01-17T03:03:00.567Z,956.3715
2023-01-17T03:04:00.720Z,956.2963
2023-01-17T03:05:00.868Z,956.3774
2023-01-17T03:06:01.029Z,956.4621
2023-01-17T03:07:01.182Z,956.4514
2023-01-17T03:08:00.305Z,956.4056
2023-01-17T03:09:00.473Z,956.4093
2023-01-17T03:10:00.627Z,956.7012
2023-01-17T03:11:00.751Z,956.6778
2023-01-17T03:12:00.914Z,956.7295
2023-01-17T03:13:01.057Z,956.5152
2023-01-17T03:14:01.225Z,956.7012
2023-01-17T03:15:00.348Z,956.7012
2023-01-17T03:16:00.504Z,956.606
2023-01-17T03:17:00.639Z,956.7908
2023-01-17T03:18:00.803Z,956.559
2023-01-17T03:19:00.951Z,956.6097
2023-01-17T03:20:01.120Z,956.7908
2023-01-17T03:21:01.251Z,956.7109
2023-01-17T03:22:00.381Z,956.5899
2023-01-17T03:23:00.536Z,956.744
2023-01-17T03:24:00.671Z,956.6912
2023-01-17T03:25:00.836Z,956.8041
2023-01-17T03:26:00.972Z,956.6629
2023-01-17T03:27:01.109Z,956.6347
2023-01-17T03:28:01.255Z,956.7029
2023-01-17T03:29:00.410Z,956.7511
2023-01-17T03:30:00.539Z,956.8698
2023-01-17T03:31:00.808Z,956.644
2023-01-17T03:32:00.875Z,956.7511
2023-01-17T03:33:00.998Z,956.744
2023-01-17T03:34:01.170Z,956.7511
2023-01-17T03:35:00.303Z,956.864
2023-01-17T03:36:00.442Z,956.8041
2023-01-17T03:37:00.615Z,956.796
2023-01-17T03:38:00.737Z,956.7476
2023-01-17T03:39:00.881Z,956.8041
2023-01-17T03:40:01.046Z,956.8382
2023-01-17T03:41:01.188Z,956.6688
2023-01-17T03:42:00.343Z,956.9735
2023-01-17T03:43:00.493Z,957.0017
2023-01-17T03:44:00.646Z,956.917
2023-01-17T03:45:00.772Z,956.9219
2023-01-17T03:46:01.003Z,956.8878
2023-01-17T03:47:01.076Z,957.0017
2023-01-17T03:48:01.215Z,957.0582
2023-01-17T03:49:00.384Z,957.0971
2023-01-17T03:50:00.542Z,957.1146
2023-01-17T03:51:00.663Z,957.0501
2023-01-17T03:52:00.804Z,957.1065
2023-01-17T03:53:00.949Z,957.2219
2023-01-17T03:54:01.097Z,957.1819
2023-01-17T03:55:01.283Z,957.0608
2023-01-17T03:56:00.414Z,957.0501
2023-01-17T03:57:00.568Z,957.2476
2023-01-17T03:58:00.699Z,957.1911
2023-01-17T03:59:00.884Z,957.0396
2023-01-17T04:00:01.026Z,957.1443
2023-01-17T04:01:01.287Z,957.2948
2023-01-17T04:02:00.394Z,957.3478
2023-01-17T04:03:00.445Z,957.1127
2023-01-17T04:04:00.610Z,957.2079
2023-01-17T04:05:00.766Z,957.3795
2023-01-17T04:06:00.917Z,957.3513
2023-01-17T04:07:01.039Z,957.2607
2023-01-17T04:08:01.180Z,957.2948
2023-01-17T04:09:00.348Z,957.2303
2023-01-17T04:10:00.501Z,957.2572
2023-01-17T04:11:00.636Z,957.2501
2023-01-17T04:12:00.774Z,957.2677
2023-01-17T04:13:00.916Z,957.417
2023-01-17T04:14:01.065Z,957.3605
2023-01-17T04:15:01.225Z,957.4734
2023-01-17T04:16:00.382Z,957.304
2023-01-17T04:17:00.520Z,957.3605
2023-01-17T04:18:00.655Z,957.304
2023-01-17T04:19:00.829Z,957.564
2023-01-17T04:20:00.962Z,957.3722
2023-01-17T04:21:01.111Z,957.4005
2023-01-17T04:22:01.253Z,957.4769
2023-01-17T04:23:00.394Z,957.3698
2023-01-17T04:24:00.541Z,957.3569
2023-01-17T04:25:00.685Z,957.3946
2023-01-17T04:26:00.852Z,957.5299
2023-01-17T04:27:01.001Z,957.3099
2023-01-17T04:28:01.139Z,957.4511
2023-01-17T04:29:00.285Z,957.5581
2023-01-17T04:30:00.432Z,957.564
2023-01-17T04:31:00.676Z,957.417
2023-01-17T04:32:00.721Z,957.564
2023-01-17T04:33:00.870Z,957.3664
2023-01-17T04:34:01.005Z,957.4276
2023-01-17T04:35:01.144Z,957.5863
2023-01-17T04:36:00.309Z,957.5922
2023-01-17T04:37:00.457Z,957.417
2023-01-17T04:38:00.606Z,957.417
2023-01-17T04:39:00.742Z,957.4452
2023-01-17T04:40:00.882Z,957.3381
2023-01-17T04:41:01.033Z,957.5299
2023-01-17T04:42:01.169Z,957.7275
2023-01-17T04:43:00.331Z,957.5863
2023-01-17T04:44:00.502Z,957.6993
2023-01-17T04:45:00.614Z,957.6428
2023-01-17T04:46:00.832Z,957.7275
2023-01-17T04:47:00.923Z,957.9998
2023-01-17T04:48:01.065Z,957.7881
2023-01-17T04:49:01.253Z,957.8175
2023-01-17T04:50:00.373Z,957.8222
2023-01-17T04:51:00.535Z,957.774
2023-01-17T04:52:00.660Z,957.9998
2023-01-17T04:53:00.817Z,957.8222
2023-01-17T04:54:00.986Z,957.8222
2023-01-17T04:55:01.125Z,957.7611
2023-01-17T04:56:01.252Z,957.8504
2023-01-17T04:57:00.408Z,957.861
2023-01-17T04:58:00.553Z,957.7881
2023-01-17T04:59:00.720Z,957.8775
2023-01-17T05:00:00.874Z,957.7717
2023-01-17T05:01:01.035Z,957.9234
2023-01-17T05:02:01.267Z,957.9516
2023-01-17T05:03:00.329Z,958.0433
2023-01-17T05:04:00.473Z,957.7894
2023-01-17T05:05:00.625Z,957.8129
2023-01-17T05:06:00.785Z,957.9598
2023-01-17T05:07:00.907Z,957.9598
2023-01-17T05:08:01.045Z,957.9598
2023-01-17T05:09:01.206Z,958.0257
2023-01-17T05:10:00.423Z,957.9199
2023-01-17T05:11:00.520Z,957.9257
2023-01-17T05:12:00.643Z,957.9822
2023-01-17T05:13:00.785Z,958.0727
2023-01-17T05:14:00.940Z,958.0045
2023-01-17T05:15:01.099Z,957.9881
2023-01-17T05:16:01.323Z,958.0692
2023-01-17T05:17:00.405Z,958.3232
2023-01-17T05:18:00.527Z,958.1738
2023-01-17T05:19:00.673Z,958.1621
2023-01-17T05:20:00.844Z,958.3596
2023-01-17T05:21:01.006Z,958.2232
2023-01-17T05:22:01.128Z,958.3079
2023-01-17T05:23:00.277Z,958.329
2023-01-17T05:24:00.421Z,958.2126
2023-01-17T05:25:00.567Z,958.2185
2023-01-17T05:26:00.753Z,958.2232
2023-01-17T05:27:00.880Z,958.3231
2023-01-17T05:28:01.017Z,958.2385
2023-01-17T05:29:01.162Z,958.4418
2023-01-17T05:30:00.299Z,958.2819
2023-01-17T05:31:00.503Z,958.3395
2023-01-17T05:32:00.663Z,958.47
2023-01-17T05:33:00.781Z,958.4747
2023-01-17T05:34:00.911Z,958.4136
2023-01-17T05:35:01.069Z,958.4524
2023-01-17T05:36:01.264Z,958.5934
2023-01-17T05:37:00.383Z,958.4911
2023-01-17T05:38:00.505Z,958.5652
2023-01-17T05:39:00.672Z,958.5311
2023-01-17T05:40:00.793Z,958.7203
2023-01-17T05:41:00.992Z,958.8296
2023-01-17T05:42:01.092Z,958.7203
2023-01-17T05:43:01.250Z,958.618
2023-01-17T05:44:00.403Z,958.6521
2023-01-17T05:45:00.553Z,958.6062
2023-01-17T05:46:00.806Z,958.8189
2023-01-17T05:47:00.838Z,958.8471
2023-01-17T05:48:00.978Z,958.7212
2023-01-17T05:49:01.125Z,958.68
2023-01-17T05:50:00.275Z,958.7364
2023-01-17T05:51:00.452Z,958.6683
2023-01-17T05:52:00.602Z,958.7399
2023-01-17T05:53:00.728Z,958.6377
2023-01-17T05:54:00.869Z,958.7786
2023-01-17T05:55:01.025Z,958.755
2023-01-17T05:56:01.206Z,958.6857
2023-01-17T05:57:00.326Z,958.7737
2023-01-17T05:58:00.487Z,958.662
2023-01-17T05:59:00.636Z,958.5928
2023-01-17T06:00:00.763Z,958.7231
2023-01-17T06:01:00.976Z,958.7231
2023-01-17T06:02:01.070Z,958.8359
2023-01-17T06:03:01.206Z,959.0272
2023-01-17T06:04:00.358Z,958.9674
2023-01-17T06:05:03.287Z,958.8311
2023-01-17T06:06:00.657Z,958.7782
2023-01-17T06:07:00.784Z,958.8287
2023-01-17T06:08:00.914Z,958.8005
2023-01-17T06:09:01.078Z,959.0318
2023-01-17T06:10:01.246Z,958.8051
2023-01-17T06:11:00.388Z,959.0234
2023-01-17T06:12:00.516Z,959.0916
2023-01-17T06:13:00.664Z,959.0234
2023-01-17T06:14:00.796Z,959.0305
2023-01-17T06:15:00.944Z,958.838
2023-01-17T06:16:01.119Z,959.1129
2023-01-17T06:17:01.247Z,959.0272
2023-01-17T06:18:00.390Z,958.972
2023-01-17T06:19:00.532Z,959.0002
2023-01-17T06:20:00.698Z,959.0895
2023-01-17T06:21:00.859Z,959.3613
2023-01-17T06:22:00.983Z,959.1177
2023-01-17T06:23:01.130Z,959.0847
2023-01-17T06:24:01.557Z,959.1981
2023-01-17T06:25:00.435Z,959.3613
2023-01-17T06:26:00.600Z,959.164
2023-01-17T06:27:00.712Z,959.1177
2023-01-17T06:28:00.883Z,959.3272
2023-01-17T06:29:01.017Z,959.4236
2023-01-17T06:30:01.165Z,959.3613
2023-01-17T06:31:00.386Z,959.3613
2023-01-17T06:32:01.729Z,959.3613
2023-01-17T06:33:00.608Z,959.3954
2023-01-17T06:34:00.775Z,959.4176
2023-01-17T06:35:00.911Z,959.3002
2023-01-17T06:36:01.040Z,959.3002
2023-01-17T06:37:01.199Z,959.3002
2023-01-17T06:38:00.478Z,959.3613
2023-01-17T06:39:00.525Z,959.4024
2023-01-17T06:40:00.653Z,959.6515
2023-01-17T06:41:00.798Z,959.4636
2023-01-17T06:42:00.932Z,959.607
2023-01-17T06:43:01.123Z,959.324
2023-01-17T06:44:01.267Z,959.6341
2023-01-17T06:45:00.409Z,959.6752
2023-01-17T06:46:00.585Z,959.4393
2023-01-17T06:47:00.695Z,959.4452
2023-01-17T06:48:00.858Z,959.519
2023-01-17T06:49:00.987Z,959.4779
2023-01-17T06:50:01.143Z,959.4111
2023-01-17T06:51:00.300Z,959.552
2023-01-17T06:52:00.454Z,959.4111
2023-01-17T06:53:00.621Z,959.4359
2023-01-17T06:54:00.745Z,959.4877
2023-01-17T06:55:00.877Z,959.51
2023-01-17T06:56:01.067Z,959.5545
2023-01-17T06:57:01.187Z,959.3631
2023-01-17T06:58:00.340Z,959.4418
2023-01-17T06:59:00.483Z,959.51
2023-01-17T07:00:00.652Z,959.6569
2023-01-17T07:01:00.824Z,959.5159
2023-01-17T07:02:00.918Z,959.5912
2023-01-17T07:03:01.072Z,959.5066
2023-01-17T07:04:01.281Z,959.4313
2023-01-17T07:05:00.351Z,959.3504
2023-01-17T07:06:00.494Z,959.4031
2023-01-17T07:07:00.629Z,959.4313
2023-01-17T07:08:00.809Z,959.6005
2023-01-17T07:09:00.953Z,959.5382
2023-01-17T07:10:01.119Z,959.4313
2023-01-17T07:11:01.219Z,959.4477
2023-01-17T07:12:00.367Z,959.4136
2023-01-17T07:13:00.534Z,959.3572
2023-01-17T07:14:00.678Z,959.4418
2023-01-17T07:15:00.806Z,959.3913
2023-01-17T07:16:00.969Z,959.5887
2023-01-17T07:17:01.105Z,959.5193
2023-01-17T07:18:01.248Z,959.5204
2023-01-17T07:19:00.394Z,959.4982
2023-01-17T07:20:00.547Z,959.5827
2023-01-17T07:21:00.671Z,959.5475
2023-01-17T07:22:00.843Z,959.8387
2023-01-17T07:23:00.963Z,959.6391
2023-01-17T07:24:01.113Z,959.5478
2023-01-17T07:25:01.265Z,959.462
2023-01-17T07:26:00.416Z,959.8441
2023-01-17T07:27:00.570Z,959.7358
2023-01-17T07:28:00.732Z,959.7076
2023-01-17T07:29:00.846Z,959.5478
2023-01-17T07:30:01.066Z,959.7877
2023-01-17T07:31:01.191Z,959.6549
2023-01-17T07:32:00.294Z,959.603
2023-01-17T07:33:00.468Z,959.6594
2023-01-17T07:34:00.584Z,959.8159
2023-01-17T07:35:00.756Z,959.9569
2023-01-17T07:36:00.908Z,959.8159
2023-01-17T07:37:01.037Z,959.9005
2023-01-17T07:38:01.206Z,959.905
2023-01-17T07:39:00.327Z,959.7076
2023-01-17T07:40:00.462Z,959.7087
2023-01-17T07:41:00.621Z,959.8931
2023-01-17T07:42:00.740Z,959.6569
2023-01-17T07:43:00.902Z,959.8086
2023-01-17T07:44:01.040Z,959.6698
2023-01-17T07:45:01.192Z,959.7496
2023-01-17T07:46:02.124Z,959.7085
2023-01-17T07:47:00.482Z,959.7085
2023-01-17T07:48:00.645Z,959.7437
2023-01-17T07:49:00.785Z,959.7051
2023-01-17T07:50:00.931Z,959.7804
2023-01-17T07:51:01.090Z,959.718
2023-01-17T07:52:01.227Z,959.7051
2023-01-17T07:53:00.374Z,959.7615
2023-01-17T07:54:00.529Z,959.7085
2023-01-17T07:55:00.691Z,959.6228
2023-01-17T07:56:00.816Z,959.9752
2023-01-17T07:57:00.963Z,959.6321
2023-01-17T07:58:02.998Z,959.9752
2023-01-17T07:59:00.281Z,959.6391
2023-01-17T08:00:00.436Z,959.941
2023-01-17T08:01:00.712Z,959.9752
2023-01-17T08:02:00.849Z,959.8461
2023-01-17T08:03:00.856Z,960.0434
2023-01-17T08:04:01.106Z,959.8461
2023-01-17T08:05:01.168Z,959.8179
2023-01-17T08:06:00.312Z,960.0434
2023-01-17T08:07:00.456Z,960.1187
2023-01-17T08:08:00.628Z,960.0846
2023-01-17T08:09:00.772Z,960.0434
2023-01-17T08:10:00.942Z,959.8119
2023-01-17T08:11:01.081Z,959.941
2023-01-17T08:12:01.233Z,959.7778
2023-01-17T08:13:00.360Z,960.0093
2023-01-17T08:14:00.526Z,959.9069
2023-01-17T08:15:00.681Z,960.0572
2023-01-17T08:16:00.857Z,959.9103
2023-01-17T08:17:00.961Z,959.9515
2023-01-17T08:18:01.127Z,959.9619
2023-01-17T08:19:01.245Z,960.0335
2023-01-17T08:20:00.421Z,960.0097
2023-01-17T08:21:00.551Z,959.9957
2023-01-17T08:22:00.693Z,960.072
2023-01-17T08:23:00.841Z,960.1121
2023-01-17T08:24:00.991Z,960.2215
2023-01-17T08:25:01.150Z,960.1744
2023-01-17T08:26:00.308Z,960.0754
2023-01-17T08:27:00.443Z,960.114
2023-01-17T08:28:00.596Z,960.0917
2023-01-17T08:29:00.794Z,960.0988
2023-01-17T08:30:00.887Z,960.2727
2023-01-17T08:31:01.051Z,960.1599
2023-01-17T08:32:01.181Z,960.2775
2023-01-17T08:33:00.362Z,960.2163
2023-01-17T08:34:00.470Z,960.1881
2023-01-17T08:35:00.669Z,960.3257
2023-01-17T08:36:00.757Z,960.253
2023-01-17T08:37:00.911Z,960.1121
2023-01-17T08:38:01.065Z,960.1874
2023-01-17T08:39:01.194Z,960.2215
2023-01-17T08:40:00.364Z,960.0854
2023-01-17T08:41:00.540Z,960.3851
2023-01-17T08:42:00.643Z,960.2159
2023-01-17T08:43:00.770Z,960.1206
2023-01-17T08:44:00.918Z,960.3851
2023-01-17T08:45:01.113Z,960.1488
2023-01-17T08:46:01.278Z,960.358
2023-01-17T08:47:00.401Z,960.1607
2023-01-17T08:48:00.534Z,960.3743
2023-01-17T08:49:00.673Z,960.1874
2023-01-17T08:50:00.838Z,960.2248
2023-01-17T08:51:01.004Z,960.2693
2023-01-17T08:52:01.109Z,960.246
2023-01-17T08:53:01.543Z,960.3717
2023-01-17T08:54:00.408Z,960.3821
2023-01-17T08:55:00.615Z,960.3198
2023-01-17T08:56:00.700Z,960.394
2023-01-17T08:57:00.877Z,960.3376
2023-01-17T08:58:01.014Z,960.2871
2023-01-17T08:59:01.154Z,960.2812
2023-01-17T09:00:00.334Z,960.3717
2023-01-17T09:01:00.561Z,960.4648
2023-01-17T09:02:00.763Z,960.358
2023-01-17T09:03:00.734Z,960.5509
2023-01-17T09:04:00.934Z,960.4289
2023-01-17T09:05:01.069Z,960.6382
2023-01-17T09:06:01.185Z,960.6056
2023-01-17T09:07:00.332Z,960.4775
2023-01-17T09:08:00.498Z,960.5236
2023-01-17T09:09:00.627Z,960.5355
2023-01-17T09:10:00.787Z,960.645
2023-01-17T09:11:00.930Z,960.645
2023-01-17T09:12:01.068Z,960.7475
2023-01-17T09:13:01.213Z,960.8058
2023-01-17T09:14:00.368Z,960.5842
2023-01-17T09:15:00.498Z,960.8742
2023-01-17T09:16:00.660Z,960.7338
2023-01-17T09:17:00.815Z,960.7116
2023-01-17T09:18:00.934Z,960.654
2023-01-17T09:19:01.109Z,960.6953
2023-01-17T09:20:01.238Z,960.9229
2023-01-17T09:21:00.407Z,960.6507
2023-01-17T09:22:00.545Z,960.7343
2023-01-17T09:23:00.685Z,960.6979
2023-01-17T09:24:00.829Z,960.7294
2023-01-17T09:25:00.975Z,960.7981
2023-01-17T09:26:01.146Z,960.6507
2023-01-17T09:27:00.286Z,960.7807
2023-01-17T09:28:00.419Z,960.6166
2023-01-17T09:29:00.566Z,960.7072
2023-01-17T09:30:00.726Z,960.7636
2023-01-17T09:31:00.908Z,960.7807
2023-01-17T09:32:01.010Z,960.6474
2023-01-17T09:33:01.154Z,960.6756
2023-01-17T09:34:00.308Z,960.7098
2023-01-17T09:35:00.473Z,960.738
2023-01-17T09:36:00.642Z,960.8632
2023-01-17T09:37:00.753Z,960.7818
2023-01-17T09:38:00.896Z,960.7202
2023-01-17T09:39:01.070Z,960.8936
2023-01-17T09:40:01.205Z,960.6979
2023-01-17T09:41:00.357Z,960.7904
2023-01-17T09:42:00.494Z,960.8811
2023-01-17T09:43:00.641Z,960.8469
2023-01-17T09:44:00.790Z,960.738
2023-01-17T09:45:00.943Z,960.6474
2023-01-17T09:46:01.242Z,960.8409
2023-01-17T09:47:01.275Z,960.6697
2023-01-17T09:48:00.371Z,960.9196
2023-01-17T09:49:00.522Z,960.7845
2023-01-17T09:50:00.672Z,960.6723
2023-01-17T09:51:00.855Z,960.9684
2023-01-17T09:52:00.979Z,960.7467
2023-01-17T09:53:01.128Z,960.8333
2023-01-17T09:54:00.281Z,960.7526
2023-01-17T09:55:00.439Z,961.0205
2023-01-17T09:56:00.614Z,960.7947
2023-01-17T09:57:00.752Z,960.7947
2023-01-17T09:58:00.880Z,960.9358
2023-01-17T09:59:01.016Z,960.8289
2023-01-17T10:00:03.608Z,960.7784
2023-01-17T10:01:00.441Z,960.8668
2023-01-17T10:02:00.694Z,960.9846
2023-01-17T10:03:00.682Z,960.8435
2023-01-17T10:04:00.785Z,960.8836
2023-01-17T10:05:00.960Z,960.8999
2023-01-17T10:06:01.071Z,960.787
2023-01-17T10:07:01.194Z,960.8315
2023-01-17T10:08:01.514Z,960.9456
2023-01-17T10:09:00.489Z,960.7984
2023-01-17T10:10:00.642Z,960.7601
2023-01-17T10:11:00.821Z,960.8913
2023-01-17T10:12:01.000Z,960.9396
2023-01-17T10:13:01.098Z,960.7724
2023-01-17T10:14:01.247Z,960.7984
2023-01-17T10:15:00.390Z,960.8717
2023-01-17T10:16:00.954Z,960.8212
2023-01-17T10:17:00.681Z,960.7989
2023-01-17T10:18:00.856Z,961.0041
2023-01-17T10:19:00.978Z,960.8554
2023-01-17T10:20:01.127Z,960.9477
2023-01-17T10:21:00.260Z,961.0574
2023-01-17T10:22:00.405Z,961.0421
2023-01-17T10:23:00.588Z,961.1139
2023-01-17T10:24:00.708Z,960.9292
2023-01-17T10:25:00.865Z,960.84
2023-01-17T10:26:01.006Z,960.8742
2023-01-17T10:27:01.141Z,961.0318
2023-01-17T10:28:00.313Z,960.7879
2023-01-17T10:29:00.441Z,960.9036
2023-01-17T10:30:00.603Z,960.9617
2023-01-17T10:31:00.787Z,960.9291
2023-01-17T10:32:00.923Z,960.9094
2023-01-17T10:33:01.056Z,961.1073
2023-01-17T10:34:01.182Z,960.9094
2023-01-17T10:35:00.333Z,960.8931
2023-01-17T10:36:00.536Z,960.911
2023-01-17T10:37:00.636Z,961.0464
2023-01-17T10:38:00.789Z,961.1757
2023-01-17T10:39:00.946Z,961.1073
2023-01-17T10:40:01.081Z,960.9633
2023-01-17T10:41:01.263Z,960.9513
2023-01-17T10:42:00.383Z,960.9094
2023-01-17T10:43:00.538Z,961.0583
2023-01-17T10:44:00.688Z,961.0524
2023-01-17T10:45:00.845Z,961.0062
2023-01-17T10:46:01.031Z,961.1073
2023-01-17T10:47:01.141Z,960.7816
2023-01-17T10:48:00.278Z,960.8093
2023-01-17T10:49:00.427Z,960.7929
2023-01-17T10:50:00.578Z,960.9326
2023-01-17T10:51:00.746Z,960.9342
2023-01-17T10:52:00.889Z,960.8951
2023-01-17T10:53:01.024Z,960.8049
2023-01-17T10:54:02.002Z,960.7747
2023-01-17T10:55:00.336Z,960.781
2023-01-17T10:56:00.494Z,960.8941
2023-01-17T10:57:00.617Z,960.8561
2023-01-17T10:58:00.760Z,960.8664
2023-01-17T10:59:00.899Z,960.866
2023-01-17T11:00:01.058Z,960.805
2023-01-17T11:01:01.322Z,960.8572
2023-01-17T11:02:00.497Z,960.759
2023-01-17T11:03:00.521Z,960.8093
2023-01-17T11:04:00.631Z,960.6128
2023-01-17T11:05:00.808Z,960.6503
2023-01-17T11:06:00.928Z,960.7258
2023-01-17T11:07:01.078Z,960.6666
2023-01-17T11:08:01.220Z,960.7768
2023-01-17T11:09:00.377Z,960.7801
2023-01-17T11:10:00.548Z,960.8812
2023-01-17T11:11:00.667Z,960.798
2023-01-17T11:12:00.816Z,960.7737
2023-01-17T11:13:00.968Z,960.8083
2023-01-17T11:14:01.119Z,960.9094
2023-01-17T11:15:00.333Z,960.7499
2023-01-17T11:16:00.479Z,960.6934
2023-01-17T11:17:00.574Z,961.1073
2023-01-17T11:18:00.734Z,960.9975
2023-01-17T11:19:00.864Z,960.8247
2023-01-17T11:20:01.048Z,960.7964
2023-01-17T11:21:01.178Z,960.6934
2023-01-17T11:22:00.320Z,960.6488
2023-01-17T11:23:00.459Z,960.7634
2023-01-17T11:24:00.610Z,960.7768
2023-01-17T11:25:00.777Z,960.7455
2023-01-17T11:26:00.905Z,960.6781
2023-01-17T11:27:01.035Z,960.7499
2023-01-17T11:28:01.199Z,960.6934
2023-01-17T11:29:00.335Z,960.6368
2023-01-17T11:30:00.515Z,960.6086
2023-01-17T11:31:00.683Z,960.6368
2023-01-17T11:32:00.795Z,960.7499
2023-01-17T11:33:00.944Z,960.6368
2023-01-17T11:34:01.093Z,960.6488
2023-01-17T11:35:01.242Z,960.7757
2023-01-17T11:36:00.409Z,960.5964
2023-01-17T11:37:00.540Z,960.6616
2023-01-17T11:38:00.674Z,960.6017
2023-01-17T11:39:00.819Z,960.6256
2023-01-17T11:40:00.992Z,960.7539
2023-01-17T11:41:01.104Z,960.7044
2023-01-17T11:42:01.251Z,960.7164
2023-01-17T11:43:00.403Z,960.742
2023-01-17T11:44:00.557Z,960.8195
2023-01-17T11:45:00.746Z,960.5646
2023-01-17T11:46:00.916Z,960.7728
2023-01-17T11:47:00.993Z,960.756